Time;durP1;ratioP1;P1;durP2;ratioP2;P2;SDS_P1;SDS_P2;PMS_P1;PMS_P2;Temp;Humidity;BMP_temperature;BMP_pressure;BME280_temperature;BME280_humidity;BME280_pressure;Samples;Min_cycle;Max_cycle;Signal;HPM_P1;HPM_P2
2023/04/22 00:00:17;;;;;;;56.85;28.83;;;;;;;;;;4969950;28;25072;-78
2023/04/22 00:02:44;;;;;;;51.60;27.20;;;;;;;;;;4991866;28;25094;-76
2023/04/22 00:05:12;;;;;;;48.72;26.98;;;;;;;;;;4974823;28;25073;-76
2023/04/22 00:07:38;;;;;;;57.25;28.85;;;;;;;;;;4973074;28;25073;-78
2023/04/22 00:10:04;;;;;;;57.55;28.95;;;;;;;;;;4974770;28;25075;-77
2023/04/22 00:12:30;;;;;;;51.63;29.52;;;;;;;;;;4970744;28;25070;-76
2023/04/22 00:14:56;;;;;;;59.47;30.33;;;;;;;;;;4972926;28;25062;-79
2023/04/22 00:17:23;;;;;;;58.50;30.08;;;;;;;;;;4975900;28;25068;-77
2023/04/22 00:19:49;;;;;;;61.67;30.35;;;;;;;;;;4990686;28;25077;-79
2023/04/22 00:22:15;;;;;;;57.72;28.13;;;;;;;;;;4981699;28;25052;-75
2023/04/22 00:24:41;;;;;;;47.00;26.55;;;;;;;;;;4974949;28;25085;-77
2023/04/22 00:27:07;;;;;;;60.65;28.48;;;;;;;;;;4974352;28;25167;-76
2023/04/22 00:29:33;;;;;;;54.88;27.48;;;;;;;;;;4974080;28;25116;-74
2023/04/22 00:31:59;;;;;;;60.33;28.25;;;;;;;;;;4972807;28;25066;-77
2023/04/22 00:34:25;;;;;;;56.80;28.00;;;;;;;;;;4973695;28;25398;-76
2023/04/22 00:36:51;;;;;;;53.50;29.15;;;;;;;;;;4978759;28;25102;-77
2023/04/22 00:39:17;;;;;;;55.03;28.50;;;;;;;;;;4980476;28;25072;-76
2023/04/22 00:41:43;;;;;;;61.88;32.20;;;;;;;;;;4976148;28;25068;-78
2023/04/22 00:44:10;;;;;;;56.85;29.33;;;;;;;;;;4976202;28;25055;-76
2023/04/22 00:46:37;;;;;;;64.72;29.85;;;;;;;;;;4969604;28;25083;-77
2023/04/22 00:49:04;;;;;;;66.13;32.28;;;;;;;;;;4965424;28;25066;-77
2023/04/22 00:51:31;;;;;;;64.15;31.75;;;;;;;;;;4974032;28;25058;-75
2023/04/22 00:53:57;;;;;;;76.43;32.88;;;;;;;;;;4974912;28;25052;-77
2023/04/22 00:56:24;;;;;;;70.22;32.17;;;;;;;;;;4965951;28;25056;-76
2023/04/22 00:58:50;;;;;;;65.18;30.98;;;;;;;;;;4969018;28;25154;-77
2023/04/22 01:01:17;;;;;;;63.88;31.50;;;;;;;;;;4971152;28;25148;-76
2023/04/22 01:03:43;;;;;;;59.75;29.83;;;;;;;;;;4970861;28;25086;-75
2023/04/22 01:06:09;;;;;;;53.25;28.25;;;;;;;;;;4972120;28;25071;-76
2023/04/22 01:08:35;;;;;;;67.28;30.88;;;;;;;;;;4970726;28;25049;-77
2023/04/22 01:11:02;;;;;;;66.85;31.70;;;;;;;;;;4965943;28;25103;-77
2023/04/22 01:13:29;;;;;;;67.20;31.25;;;;;;;;;;4973262;28;25055;-76
2023/04/22 01:15:55;;;;;;;71.07;31.27;;;;;;;;;;4966609;28;25084;-78
2023/04/22 01:18:21;;;;;;;61.65;29.65;;;;;;;;;;4968509;28;25071;-76
2023/04/22 01:20:47;;;;;;;67.97;32.28;;;;;;;;;;4990110;28;25085;-77
2023/04/22 01:23:22;;;;;;;63.15;31.73;;;;;;;;;;4963009;28;25112;-79
2023/04/22 01:25:49;;;;;;;74.57;34.05;;;;;;;;;;4973109;28;25063;-76
2023/04/22 01:28:15;;;;;;;72.38;32.20;;;;;;;;;;4965449;28;25081;-77
2023/04/22 01:30:42;;;;;;;80.57;35.00;;;;;;;;;;4971656;28;25110;-79
2023/04/22 01:33:09;;;;;;;80.55;34.40;;;;;;;;;;4969365;28;25157;-78
2023/04/22 01:35:35;;;;;;;78.43;32.53;;;;;;;;;;4969519;28;25127;-77
2023/04/22 01:38:05;;;;;;;74.03;31.67;;;;;;;;;;4972284;28;25070;-78
2023/04/22 01:40:32;;;;;;;64.05;30.40;;;;;;;;;;4967606;28;25063;-76
2023/04/22 01:43:01;;;;;;;59.33;29.35;;;;;;;;;;4970649;28;25048;-79
2023/04/22 01:45:27;;;;;;;59.83;30.33;;;;;;;;;;4980266;28;25043;-77
2023/04/22 01:47:54;;;;;;;62.85;29.67;;;;;;;;;;4978524;28;25072;-78
2023/04/22 01:50:20;;;;;;;59.75;29.90;;;;;;;;;;4981292;28;25076;-78
2023/04/22 01:52:47;;;;;;;68.10;30.60;;;;;;;;;;4974461;28;25074;-79
2023/04/22 01:55:13;;;;;;;66.78;30.73;;;;;;;;;;4973893;28;25063;-78
2023/04/22 01:57:40;;;;;;;65.00;30.52;;;;;;;;;;4974803;28;25062;-79
2023/04/22 02:00:07;;;;;;;67.65;31.95;;;;;;;;;;4971744;28;25054;-78
2023/04/22 02:02:33;;;;;;;77.25;35.47;;;;;;;;;;4976372;28;25138;-78
2023/04/22 02:04:59;;;;;;;67.75;32.20;;;;;;;;;;4975000;28;25070;-76
2023/04/22 02:07:25;;;;;;;83.10;32.58;;;;;;;;;;4975801;28;25182;-77
2023/04/22 02:09:52;;;;;;;81.97;34.15;;;;;;;;;;4973353;28;25076;-78
2023/04/22 02:12:18;;;;;;;66.72;31.48;;;;;;;;;;4981761;28;25067;-78
2023/04/22 02:14:44;;;;;;;75.40;31.23;;;;;;;;;;4973103;28;25068;-79
2023/04/22 02:17:10;;;;;;;79.45;32.38;;;;;;;;;;4978383;28;25072;-79
2023/04/22 02:19:35;;;;;;;67.20;30.45;;;;;;;;;;4978615;28;25077;-78
2023/04/22 02:22:02;;;;;;;69.32;31.95;;;;;;;;;;4975738;28;25064;-79
2023/04/22 02:24:28;;;;;;;70.65;31.55;;;;;;;;;;4972128;28;25073;-77
2023/04/22 02:26:53;;;;;;;77.43;34.33;;;;;;;;;;4980605;28;25079;-77
2023/04/22 02:29:20;;;;;;;72.38;32.75;;;;;;;;;;4976482;28;25060;-79
2023/04/22 02:31:46;;;;;;;62.15;30.30;;;;;;;;;;4976297;28;25078;-77
2023/04/22 02:34:12;;;;;;;70.90;31.27;;;;;;;;;;4982491;28;25051;-78
2023/04/22 02:36:38;;;;;;;72.22;32.58;;;;;;;;;;4973363;28;25148;-79
2023/04/22 02:39:04;;;;;;;70.05;30.92;;;;;;;;;;4973016;28;25107;-78
2023/04/22 02:41:30;;;;;;;67.18;31.65;;;;;;;;;;4974249;28;25071;-78
2023/04/22 02:43:56;;;;;;;69.32;33.58;;;;;;;;;;4974688;28;25167;-76
2023/04/22 02:46:22;;;;;;;71.68;33.70;;;;;;;;;;4986902;28;25094;-78
2023/04/22 02:48:48;;;;;;;67.18;32.13;;;;;;;;;;4981928;28;24998;-76
2023/04/22 02:51:15;;;;;;;70.20;33.20;;;;;;;;;;4978829;28;25062;-77
2023/04/22 02:53:41;;;;;;;58.58;29.95;;;;;;;;;;4993015;28;25066;-75
2023/04/22 02:56:08;;;;;;;68.40;33.25;;;;;;;;;;4984948;28;25068;-76
2023/04/22 02:58:34;;;;;;;62.88;31.83;;;;;;;;;;4985951;28;25080;-77
2023/04/22 03:01:00;;;;;;;61.97;31.05;;;;;;;;;;4979420;28;25150;-77
2023/04/22 03:03:26;;;;;;;69.72;34.50;;;;;;;;;;4977867;28;25073;-76
2023/04/22 03:05:52;;;;;;;75.93;33.97;;;;;;;;;;4976143;28;25052;-78
2023/04/22 03:08:19;;;;;;;74.68;32.15;;;;;;;;;;4967837;28;25107;-78
2023/04/22 03:10:45;;;;;;;66.78;32.58;;;;;;;;;;4974520;28;25075;-77
2023/04/22 03:13:12;;;;;;;70.60;31.98;;;;;;;;;;4974327;28;25160;-76
2023/04/22 03:15:39;;;;;;;67.78;31.42;;;;;;;;;;4969529;28;25072;-79
2023/04/22 03:18:05;;;;;;;73.40;33.65;;;;;;;;;;4973979;28;25067;-75
2023/04/22 03:20:31;;;;;;;82.78;36.20;;;;;;;;;;4977015;28;25105;-76
2023/04/22 03:22:57;;;;;;;80.25;34.90;;;;;;;;;;4974286;28;25138;-78
2023/04/22 03:25:23;;;;;;;71.93;33.28;;;;;;;;;;4972157;28;25088;-77
2023/04/22 03:27:49;;;;;;;69.85;32.83;;;;;;;;;;4969627;28;25069;-77
2023/04/22 03:30:15;;;;;;;69.50;33.28;;;;;;;;;;4972202;28;25143;-77
2023/04/22 03:32:41;;;;;;;74.60;35.05;;;;;;;;;;4971990;28;25073;-78
2023/04/22 03:35:07;;;;;;;63.05;33.17;;;;;;;;;;4973480;28;25064;-77
2023/04/22 03:37:33;;;;;;;76.70;34.65;;;;;;;;;;4972076;28;25078;-77
2023/04/22 03:39:59;;;;;;;71.70;33.95;;;;;;;;;;4973852;28;25072;-78
2023/04/22 03:42:25;;;;;;;70.40;34.28;;;;;;;;;;4973308;28;25182;-78
2023/04/22 03:44:52;;;;;;;76.15;34.13;;;;;;;;;;4976848;28;25117;-76
2023/04/22 03:47:17;;;;;;;70.85;34.60;;;;;;;;;;4974649;28;25073;-75
2023/04/22 03:49:44;;;;;;;67.68;32.00;;;;;;;;;;4975118;28;25079;-74
2023/04/22 03:52:10;;;;;;;80.57;37.42;;;;;;;;;;4974414;28;25111;-76
2023/04/22 03:54:36;;;;;;;76.07;37.50;;;;;;;;;;4969243;28;25095;-77
2023/04/22 03:57:02;;;;;;;71.25;34.50;;;;;;;;;;4971866;28;25140;-76
2023/04/22 03:59:28;;;;;;;77.43;36.47;;;;;;;;;;4972008;28;25070;-77
2023/04/22 04:01:54;;;;;;;73.60;37.08;;;;;;;;;;4969376;28;25087;-76
2023/04/22 04:04:22;;;;;;;76.80;35.63;;;;;;;;;;4983633;28;25146;-76
2023/04/22 04:06:48;;;;;;;76.32;36.90;;;;;;;;;;4975146;28;25087;-74
2023/04/22 04:09:14;;;;;;;72.25;35.88;;;;;;;;;;4979592;28;25080;-76
2023/04/22 04:11:40;;;;;;;61.35;31.65;;;;;;;;;;4969468;28;25114;-76
2023/04/22 04:14:06;;;;;;;71.80;33.90;;;;;;;;;;4974644;28;25149;-76
2023/04/22 04:16:32;;;;;;;67.70;34.33;;;;;;;;;;4974391;28;25057;-76
2023/04/22 04:18:58;;;;;;;68.32;35.10;;;;;;;;;;4973376;28;25071;-77
2023/04/22 04:21:25;;;;;;;83.22;37.38;;;;;;;;;;4980577;28;25098;-76
2023/04/22 04:23:51;;;;;;;68.35;34.65;;;;;;;;;;4980158;28;25157;-75
2023/04/22 04:26:19;;;;;;;74.38;35.92;;;;;;;;;;4973663;28;25046;-76
2023/04/22 04:28:46;;;;;;;73.43;35.20;;;;;;;;;;4971448;28;25130;-77
2023/04/22 04:31:11;;;;;;;66.13;33.60;;;;;;;;;;4971944;28;25086;-75
2023/04/22 04:33:37;;;;;;;61.53;32.33;;;;;;;;;;4971294;28;25077;-77
2023/04/22 04:36:04;;;;;;;63.67;32.53;;;;;;;;;;4968370;28;25171;-76
2023/04/22 04:38:30;;;;;;;59.13;33.08;;;;;;;;;;4973457;28;25102;-76
2023/04/22 04:40:56;;;;;;;61.42;31.65;;;;;;;;;;4990358;28;25073;-76
2023/04/22 04:43:24;;;;;;;63.33;30.95;;;;;;;;;;4971236;28;25050;-76
2023/04/22 04:45:50;;;;;;;62.38;34.13;;;;;;;;;;4968671;28;25145;-76
2023/04/22 04:48:18;;;;;;;56.47;31.00;;;;;;;;;;4966313;28;25100;-78
2023/04/22 04:50:45;;;;;;;69.40;32.63;;;;;;;;;;4972168;28;25079;-78
2023/04/22 04:53:12;;;;;;;62.15;31.00;;;;;;;;;;4973886;28;25153;-75
2023/04/22 04:55:38;;;;;;;61.80;31.42;;;;;;;;;;4974057;28;25062;-77
2023/04/22 04:58:04;;;;;;;65.32;32.08;;;;;;;;;;4986722;28;25078;-76
2023/04/22 05:00:30;;;;;;;62.95;32.92;;;;;;;;;;4968941;28;25134;-77
2023/04/22 05:02:56;;;;;;;62.22;31.60;;;;;;;;;;4963667;28;25062;-76
2023/04/22 05:05:22;;;;;;;59.83;30.58;;;;;;;;;;4959717;28;25066;-78
2023/04/22 05:07:50;;;;;;;60.67;31.08;;;;;;;;;;4967914;28;25054;-76
2023/04/22 05:10:16;;;;;;;60.83;31.17;;;;;;;;;;4973704;28;25089;-78
2023/04/22 05:12:43;;;;;;;52.92;29.42;;;;;;;;;;4963588;28;25067;-77
2023/04/22 05:15:09;;;;;;;58.53;29.95;;;;;;;;;;4969127;28;25075;-77
2023/04/22 05:17:35;;;;;;;54.22;28.95;;;;;;;;;;4973222;28;25135;-76
2023/04/22 05:20:00;;;;;;;59.72;30.13;;;;;;;;;;4968078;28;25085;-78
2023/04/22 05:22:26;;;;;;;53.53;29.00;;;;;;;;;;4971828;28;25138;-77
2023/04/22 05:24:52;;;;;;;53.55;27.77;;;;;;;;;;4974205;28;25089;-77
2023/04/22 05:27:18;;;;;;;55.90;29.73;;;;;;;;;;4973988;28;25084;-77
2023/04/22 05:29:44;;;;;;;52.03;28.25;;;;;;;;;;4978673;28;25059;-77
2023/04/22 05:32:10;;;;;;;55.75;29.58;;;;;;;;;;4972151;28;25133;-77
2023/04/22 05:34:36;;;;;;;48.90;27.52;;;;;;;;;;4975789;28;25052;-77
2023/04/22 05:37:04;;;;;;;48.80;27.63;;;;;;;;;;4978879;28;25065;-78
2023/04/22 05:39:30;;;;;;;57.42;29.90;;;;;;;;;;4976314;28;25057;-77
2023/04/22 05:41:56;;;;;;;46.35;25.33;;;;;;;;;;4967876;28;25083;-76
2023/04/22 05:44:22;;;;;;;47.92;28.15;;;;;;;;;;4969510;28;25143;-77
2023/04/22 05:46:48;;;;;;;47.28;25.65;;;;;;;;;;4973224;28;25077;-78
2023/04/22 05:49:14;;;;;;;47.80;27.15;;;;;;;;;;4972243;28;25122;-78
2023/04/22 05:51:40;;;;;;;51.30;27.80;;;;;;;;;;4968434;28;25082;-76
2023/04/22 05:54:06;;;;;;;45.58;28.13;;;;;;;;;;4971556;28;25072;-75
2023/04/22 05:56:32;;;;;;;47.53;26.92;;;;;;;;;;4971047;28;25149;-77
2023/04/22 05:58:58;;;;;;;45.00;25.67;;;;;;;;;;4968725;28;25077;-77
2023/04/22 06:01:24;;;;;;;49.72;26.73;;;;;;;;;;4969349;28;25081;-77
2023/04/22 06:03:50;;;;;;;48.17;25.77;;;;;;;;;;4974157;28;25041;-79
2023/04/22 06:06:16;;;;;;;38.97;24.92;;;;;;;;;;4974809;28;25062;-77
2023/04/22 06:08:42;;;;;;;47.70;26.23;;;;;;;;;;4983250;28;25047;-77
2023/04/22 06:11:08;;;;;;;44.95;26.23;;;;;;;;;;4972893;28;25067;-77
2023/04/22 06:13:34;;;;;;;46.60;26.67;;;;;;;;;;4974245;28;25152;-75
2023/04/22 06:16:00;;;;;;;54.15;28.48;;;;;;;;;;4972320;28;25130;-76
2023/04/22 06:18:26;;;;;;;52.55;29.38;;;;;;;;;;4978824;28;25051;-79
2023/04/22 06:20:53;;;;;;;48.72;26.90;;;;;;;;;;4974542;28;25044;-76
2023/04/22 06:23:19;;;;;;;48.85;27.83;;;;;;;;;;4973752;28;25140;-76
2023/04/22 06:25:46;;;;;;;48.13;26.80;;;;;;;;;;4985557;28;25043;-77
2023/04/22 06:28:12;;;;;;;49.10;27.02;;;;;;;;;;4976843;28;25101;-75
2023/04/22 06:30:38;;;;;;;41.88;24.33;;;;;;;;;;4971339;28;25097;-76
2023/04/22 06:33:04;;;;;;;43.88;26.90;;;;;;;;;;4969277;28;25067;-78
2023/04/22 06:35:30;;;;;;;46.47;26.17;;;;;;;;;;4968548;28;25055;-75
2023/04/22 06:37:56;;;;;;;47.80;27.88;;;;;;;;;;4969387;28;25067;-79
2023/04/22 06:40:22;;;;;;;48.13;27.63;;;;;;;;;;4966414;28;25154;-75
2023/04/22 06:42:48;;;;;;;43.58;26.60;;;;;;;;;;4973662;28;25110;-76
2023/04/22 06:45:14;;;;;;;41.60;25.55;;;;;;;;;;4968592;28;25052;-76
2023/04/22 06:47:40;;;;;;;46.47;27.20;;;;;;;;;;4973627;28;25074;-77
2023/04/22 06:50:07;;;;;;;42.97;25.63;;;;;;;;;;4963586;28;25062;-75
2023/04/22 06:52:32;;;;;;;40.53;25.70;;;;;;;;;;4967219;28;25095;-75
2023/04/22 06:54:59;;;;;;;47.42;27.73;;;;;;;;;;4959293;28;25084;-76
2023/04/22 06:57:25;;;;;;;38.67;23.75;;;;;;;;;;4965264;28;25056;-75
2023/04/22 06:59:51;;;;;;;39.08;25.17;;;;;;;;;;4965577;28;25078;-75
2023/04/22 07:02:17;;;;;;;39.25;25.63;;;;;;;;;;4967814;28;25123;-75
2023/04/22 07:04:43;;;;;;;37.53;24.60;;;;;;;;;;4967204;28;25073;-75
2023/04/22 07:07:09;;;;;;;38.33;24.08;;;;;;;;;;4964712;28;25069;-74
2023/04/22 07:09:35;;;;;;;39.38;23.23;;;;;;;;;;4975162;28;25087;-73
2023/04/22 07:12:01;;;;;;;39.58;24.35;;;;;;;;;;4968626;28;25096;-75
2023/04/22 07:14:27;;;;;;;35.22;23.35;;;;;;;;;;4961675;28;25149;-72
2023/04/22 07:16:53;;;;;;;35.47;22.95;;;;;;;;;;4962696;28;25054;-73
2023/04/22 07:19:20;;;;;;;34.22;21.98;;;;;;;;;;4964370;28;25071;-75
2023/04/22 07:21:46;;;;;;;33.85;21.63;;;;;;;;;;4970072;28;25082;-76
2023/04/22 07:24:12;;;;;;;30.95;21.48;;;;;;;;;;4959945;28;25074;-76
2023/04/22 07:26:39;;;;;;;29.88;21.35;;;;;;;;;;4972060;28;25092;-73
2023/04/22 07:29:06;;;;;;;31.08;21.15;;;;;;;;;;4967887;28;25083;-73
2023/04/22 07:31:32;;;;;;;31.42;19.88;;;;;;;;;;4966710;28;25040;-76
2023/04/22 07:33:58;;;;;;;31.02;21.42;;;;;;;;;;4979103;28;25101;-74
2023/04/22 07:36:25;;;;;;;33.78;21.27;;;;;;;;;;4965409;28;25102;-72
2023/04/22 07:38:51;;;;;;;29.58;19.88;;;;;;;;;;4977327;28;25071;-76
2023/04/22 07:41:17;;;;;;;27.10;18.08;;;;;;;;;;4963137;28;25068;-74
2023/04/22 07:43:43;;;;;;;26.35;18.38;;;;;;;;;;4962769;28;25077;-76
2023/04/22 07:46:09;;;;;;;28.92;19.35;;;;;;;;;;4966375;28;25049;-74
2023/04/22 07:48:35;;;;;;;30.15;18.35;;;;;;;;;;4966564;28;25155;-77
2023/04/22 07:51:01;;;;;;;28.40;18.73;;;;;;;;;;4963911;28;25057;-75
2023/04/22 07:53:27;;;;;;;25.58;17.92;;;;;;;;;;4959863;28;25063;-76
2023/04/22 07:55:53;;;;;;;26.27;18.08;;;;;;;;;;4965861;28;25063;-75
2023/04/22 07:58:19;;;;;;;28.75;18.55;;;;;;;;;;4974371;28;25133;-76
2023/04/22 08:00:45;;;;;;;29.25;19.92;;;;;;;;;;4959369;28;25137;-77
2023/04/22 08:03:11;;;;;;;25.25;18.20;;;;;;;;;;4976404;28;25097;-76
2023/04/22 08:05:37;;;;;;;27.67;18.48;;;;;;;;;;4971163;28;25057;-76
2023/04/22 08:08:03;;;;;;;26.48;17.92;;;;;;;;;;4967231;28;25117;-76
2023/04/22 08:10:29;;;;;;;30.52;19.15;;;;;;;;;;4965580;28;25088;-77
2023/04/22 08:12:55;;;;;;;24.75;17.73;;;;;;;;;;4961540;28;25050;-75
2023/04/22 08:15:21;;;;;;;23.15;16.58;;;;;;;;;;4965463;28;25148;-76
2023/04/22 08:17:47;;;;;;;24.23;17.70;;;;;;;;;;4965827;28;25065;-75
2023/04/22 08:20:15;;;;;;;23.70;15.82;;;;;;;;;;4967466;28;25140;-76
2023/04/22 08:22:44;;;;;;;23.92;16.45;;;;;;;;;;4963801;28;25087;-76
2023/04/22 08:25:10;;;;;;;23.73;16.08;;;;;;;;;;4960206;28;25059;-76
2023/04/22 08:27:37;;;;;;;21.10;14.48;;;;;;;;;;4967856;28;25070;-75
2023/04/22 08:30:04;;;;;;;20.17;14.50;;;;;;;;;;4971954;28;25206;-74
2023/04/22 08:32:30;;;;;;;16.73;11.20;;;;;;;;;;4965676;28;25076;-76
2023/04/22 08:34:56;;;;;;;16.85;11.75;;;;;;;;;;4979116;28;25120;-75
2023/04/22 08:37:23;;;;;;;17.67;11.75;;;;;;;;;;4970076;28;25066;-76
2023/04/22 08:39:49;;;;;;;17.10;12.15;;;;;;;;;;4965069;28;25100;-76
2023/04/22 08:42:15;;;;;;;13.23;10.00;;;;;;;;;;4968993;28;25068;-76
2023/04/22 08:44:41;;;;;;;13.13;9.60;;;;;;;;;;4965528;28;25062;-75
2023/04/22 08:47:08;;;;;;;15.70;10.90;;;;;;;;;;4979584;28;25061;-76
2023/04/22 08:49:35;;;;;;;13.73;10.77;;;;;;;;;;4966583;28;25085;-77
2023/04/22 08:52:01;;;;;;;16.88;10.77;;;;;;;;;;4963461;28;25093;-76
2023/04/22 08:54:27;;;;;;;14.45;11.23;;;;;;;;;;4965159;28;25148;-74
2023/04/22 08:56:53;;;;;;;17.02;11.60;;;;;;;;;;4961714;28;25128;-73
2023/04/22 08:59:20;;;;;;;16.40;11.38;;;;;;;;;;4956431;28;25126;-75
2023/04/22 09:01:49;;;;;;;17.70;11.15;;;;;;;;;;4963857;28;25156;-74
2023/04/22 09:04:17;;;;;;;16.38;10.05;;;;;;;;;;4982324;28;25085;-75
2023/04/22 09:06:43;;;;;;;13.27;9.80;;;;;;;;;;4967377;28;25092;-76
2023/04/22 09:09:09;;;;;;;15.75;10.82;;;;;;;;;;4975645;28;25102;-75
2023/04/22 09:11:36;;;;;;;18.13;11.25;;;;;;;;;;4963291;28;25073;-73
2023/04/22 09:14:05;;;;;;;16.10;11.38;;;;;;;;;;4964971;28;25079;-75
2023/04/22 09:16:31;;;;;;;14.25;9.93;;;;;;;;;;4962007;28;25094;-77
2023/04/22 09:18:57;;;;;;;12.45;8.98;;;;;;;;;;4966404;28;25108;-76
2023/04/22 09:21:27;;;;;;;14.60;8.45;;;;;;;;;;4966475;28;25127;-75
2023/04/22 09:23:53;;;;;;;11.27;8.68;;;;;;;;;;4977270;28;25137;-77
2023/04/22 09:26:20;;;;;;;14.70;8.65;;;;;;;;;;4963144;28;25084;-76
2023/04/22 09:28:59;;;;;;;11.38;8.48;;;;;;;;;;4957112;28;25153;-75
2023/04/22 09:31:26;;;;;;;11.27;8.35;;;;;;;;;;4959323;28;25135;-76
2023/04/22 09:33:56;;;;;;;10.00;7.57;;;;;;;;;;4961609;28;25146;-77
2023/04/22 09:36:28;;;;;;;10.18;7.43;;;;;;;;;;4955632;28;25068;-77
2023/04/22 09:38:54;;;;;;;10.48;7.43;;;;;;;;;;4941938;28;25066;-79
2023/04/22 09:41:39;;;;;;;10.05;7.30;;;;;;;;;;4963945;28;25126;-78
2023/04/22 09:44:09;;;;;;;10.65;9.00;;;;;;;;;;4961926;28;25164;-75
2023/04/22 09:46:35;;;;;;;13.40;8.00;;;;;;;;;;4974509;28;25101;-76
2023/04/22 09:49:02;;;;;;;10.63;7.90;;;;;;;;;;4978352;28;25059;-77
2023/04/22 09:51:29;;;;;;;11.93;7.38;;;;;;;;;;4974633;28;25177;-77
2023/04/22 09:53:59;;;;;;;10.48;8.00;;;;;;;;;;4979247;28;25053;-77
2023/04/22 09:56:44;;;;;;;9.65;7.30;;;;;;;;;;4976319;28;25082;-78
2023/04/22 09:59:10;;;;;;;12.00;7.63;;;;;;;;;;4984631;28;25097;-78
2023/04/22 10:01:40;;;;;;;10.07;7.30;;;;;;;;;;4989830;28;25109;-78
2023/04/22 10:04:10;;;;;;;9.65;7.63;;;;;;;;;;5004932;28;25065;-77
2023/04/22 10:06:36;;;;;;;8.18;7.00;;;;;;;;;;4981678;28;25061;-75
2023/04/22 10:09:04;;;;;;;9.88;6.97;;;;;;;;;;4981790;28;25044;-75
2023/04/22 10:11:30;;;;;;;11.30;7.47;;;;;;;;;;4977065;28;25094;-75
2023/04/22 10:13:57;;;;;;;10.55;8.20;;;;;;;;;;4979577;28;25074;-77
2023/04/22 10:16:23;;;;;;;12.45;8.77;;;;;;;;;;4980232;28;25145;-77
2023/04/22 10:18:50;;;;;;;11.35;8.13;;;;;;;;;;4975180;28;25150;-75
2023/04/22 10:21:18;;;;;;;11.50;8.57;;;;;;;;;;4984350;28;25109;-75
2023/04/22 10:23:48;;;;;;;11.48;8.43;;;;;;;;;;4988826;28;25054;-74
2023/04/22 10:26:34;;;;;;;12.88;8.15;;;;;;;;;;4987243;28;25085;-76
2023/04/22 10:29:00;;;;;;;12.13;8.55;;;;;;;;;;4994392;28;25071;-77
2023/04/22 10:31:26;;;;;;;14.50;9.30;;;;;;;;;;4987266;28;25083;-76
2023/04/22 10:34:08;;;;;;;11.13;8.35;;;;;;;;;;4983974;28;24963;-78
2023/04/22 10:36:34;;;;;;;12.32;8.80;;;;;;;;;;4979442;28;25054;-78
2023/04/22 10:39:00;;;;;;;11.95;8.85;;;;;;;;;;4983856;28;25105;-75
2023/04/22 10:41:29;;;;;;;13.07;8.27;;;;;;;;;;4985817;28;25104;-76
2023/04/22 10:43:57;;;;;;;12.50;9.27;;;;;;;;;;4975748;28;25164;-76
2023/04/22 10:46:44;;;;;;;14.32;8.40;;;;;;;;;;4977165;28;25079;-76
2023/04/22 10:49:10;;;;;;;12.88;8.77;;;;;;;;;;4976870;28;25095;-78
2023/04/22 10:51:43;;;;;;;11.13;8.18;;;;;;;;;;4976605;28;25113;-78
2023/04/22 10:54:25;;;;;;;11.30;7.47;;;;;;;;;;4973958;28;25094;-79
2023/04/22 10:57:03;;;;;;;14.65;8.75;;;;;;;;;;4971654;28;25070;-76
2023/04/22 10:59:29;;;;;;;12.25;9.02;;;;;;;;;;4968757;28;25075;-78
2023/04/22 11:02:00;;;;;;;13.32;9.60;;;;;;;;;;4978122;28;25089;-75
2023/04/22 11:04:26;;;;;;;14.55;9.63;;;;;;;;;;4983122;28;25163;-76
2023/04/22 11:07:25;;;;;;;14.18;9.70;;;;;;;;;;4980962;28;25084;-76
2023/04/22 11:09:51;;;;;;;15.07;9.23;;;;;;;;;;4981974;28;25063;-72
2023/04/22 11:12:38;;;;;;;17.80;9.93;;;;;;;;;;4968658;28;25065;-75
2023/04/22 11:15:22;;;;;;;15.05;10.48;;;;;;;;;;4998375;28;25056;-74
2023/04/22 11:17:52;;;;;;;17.75;11.85;;;;;;;;;;4979959;28;25130;-74
2023/04/22 11:20:18;;;;;;;16.60;11.55;;;;;;;;;;4983810;28;25073;-75
2023/04/22 11:22:45;;;;;;;18.05;12.13;;;;;;;;;;4975785;28;25056;-74
2023/04/22 11:25:11;;;;;;;18.98;13.25;;;;;;;;;;4981568;28;25091;-76
2023/04/22 11:27:38;;;;;;;22.90;13.25;;;;;;;;;;4980811;28;25053;-76
2023/04/22 11:30:07;;;;;;;19.65;14.13;;;;;;;;;;5009515;28;25065;-76
2023/04/22 11:32:34;;;;;;;21.80;14.32;;;;;;;;;;4987389;28;25081;-77
2023/04/22 11:35:04;;;;;;;20.65;15.10;;;;;;;;;;4983680;28;25067;-78
2023/04/22 11:37:30;;;;;;;24.15;15.02;;;;;;;;;;4985138;28;25069;-77
2023/04/22 11:40:00;;;;;;;20.98;14.65;;;;;;;;;;4988605;28;25073;-77
2023/04/22 11:42:26;;;;;;;22.27;13.75;;;;;;;;;;4980485;28;25084;-76
2023/04/22 11:44:52;;;;;;;20.42;13.05;;;;;;;;;;4983307;28;25055;-75
2023/04/22 11:47:18;;;;;;;24.08;14.55;;;;;;;;;;4980185;28;25064;-76
2023/04/22 11:50:03;;;;;;;24.77;14.88;;;;;;;;;;4979156;28;25062;-75
2023/04/22 11:52:48;;;;;;;22.67;15.25;;;;;;;;;;4989501;28;24985;-79
2023/04/22 11:55:15;;;;;;;24.48;16.25;;;;;;;;;;4990849;28;25087;-76
2023/04/22 11:57:41;;;;;;;26.27;17.08;;;;;;;;;;4993569;28;25063;-77
2023/04/22 12:00:10;;;;;;;30.23;17.70;;;;;;;;;;4991695;28;25072;-78
2023/04/22 12:02:36;;;;;;;29.17;17.40;;;;;;;;;;5004038;28;25088;-78
2023/04/22 12:05:02;;;;;;;32.42;18.23;;;;;;;;;;4982438;28;25056;-78
2023/04/22 12:07:29;;;;;;;31.25;18.77;;;;;;;;;;5002324;28;25071;-77
2023/04/22 12:09:55;;;;;;;26.38;17.35;;;;;;;;;;4983304;28;25082;-76
2023/04/22 12:12:27;;;;;;;30.67;19.40;;;;;;;;;;4988260;28;25154;-74
2023/04/22 12:14:53;;;;;;;31.50;18.83;;;;;;;;;;4967423;28;25067;-74
2023/04/22 12:17:23;;;;;;;26.35;17.52;;;;;;;;;;4973732;28;25077;-74
2023/04/22 12:19:54;;;;;;;27.67;17.80;;;;;;;;;;4986137;28;25098;-73
2023/04/22 12:22:29;;;;;;;29.42;18.95;;;;;;;;;;4964234;28;25135;-75
2023/04/22 12:24:59;;;;;;;29.98;18.77;;;;;;;;;;4964638;28;25081;-74
2023/04/22 12:27:25;;;;;;;26.17;16.98;;;;;;;;;;4967494;28;25079;-74
2023/04/22 12:29:52;;;;;;;29.73;17.33;;;;;;;;;;4968947;28;25063;-76
2023/04/22 12:32:19;;;;;;;31.17;19.27;;;;;;;;;;4966791;28;25069;-74
2023/04/22 12:34:45;;;;;;;27.20;17.48;;;;;;;;;;4967449;28;25067;-74
2023/04/22 12:37:11;;;;;;;30.73;19.35;;;;;;;;;;4969366;28;25054;-76
2023/04/22 12:39:37;;;;;;;32.97;19.30;;;;;;;;;;4967265;28;25073;-75
2023/04/22 12:42:04;;;;;;;30.90;18.45;;;;;;;;;;4966245;28;25056;-77
2023/04/22 12:44:30;;;;;;;28.55;19.23;;;;;;;;;;4960509;28;25072;-77
2023/04/22 12:46:56;;;;;;;26.20;17.63;;;;;;;;;;4961839;28;25083;-74
2023/04/22 12:49:22;;;;;;;30.75;17.42;;;;;;;;;;4967272;28;25167;-76
2023/04/22 12:51:49;;;;;;;32.75;19.45;;;;;;;;;;4966575;28;25077;-77
2023/04/22 12:54:14;;;;;;;31.42;18.40;;;;;;;;;;4965578;28;25073;-75
2023/04/22 12:56:40;;;;;;;31.45;18.27;;;;;;;;;;4970970;28;25152;-73
2023/04/22 12:59:06;;;;;;;28.27;16.77;;;;;;;;;;4965749;28;25092;-77
2023/04/22 13:01:32;;;;;;;25.60;16.52;;;;;;;;;;4980933;28;25051;-75
2023/04/22 13:03:58;;;;;;;28.52;16.65;;;;;;;;;;4967953;28;25351;-75
2023/04/22 13:06:25;;;;;;;26.25;16.05;;;;;;;;;;4965907;28;25071;-76
2023/04/22 13:08:51;;;;;;;26.77;16.40;;;;;;;;;;4964708;28;25065;-74
2023/04/22 13:11:17;;;;;;;24.65;16.25;;;;;;;;;;4964014;28;25059;-77
2023/04/22 13:13:43;;;;;;;23.45;15.57;;;;;;;;;;4962528;28;25145;-75
2023/04/22 13:16:09;;;;;;;26.90;16.08;;;;;;;;;;4965506;28;25122;-75
2023/04/22 13:18:35;;;;;;;25.27;16.48;;;;;;;;;;4972539;28;25062;-75
2023/04/22 13:21:01;;;;;;;25.55;16.13;;;;;;;;;;4961049;28;25056;-77
2023/04/22 13:23:27;;;;;;;25.42;15.57;;;;;;;;;;4965662;28;25081;-76
2023/04/22 13:25:53;;;;;;;26.02;16.55;;;;;;;;;;4953628;28;25087;-76
2023/04/22 13:28:19;;;;;;;25.70;17.13;;;;;;;;;;4994138;28;25057;-75
2023/04/22 13:30:45;;;;;;;26.35;16.73;;;;;;;;;;4967409;28;25077;-76
2023/04/22 13:33:11;;;;;;;28.83;17.45;;;;;;;;;;4968914;28;25093;-75
2023/04/22 13:35:38;;;;;;;24.67;15.48;;;;;;;;;;4971179;28;25509;-75
2023/04/22 13:38:06;;;;;;;28.02;17.38;;;;;;;;;;4999314;28;25085;-77
2023/04/22 13:40:31;;;;;;;30.02;17.20;;;;;;;;;;4986240;28;25140;-75
2023/04/22 13:42:58;;;;;;;25.00;16.63;;;;;;;;;;4964135;28;25063;-76
2023/04/22 13:45:25;;;;;;;26.90;16.63;;;;;;;;;;4975121;28;25071;-78
2023/04/22 13:47:51;;;;;;;28.40;17.40;;;;;;;;;;4969878;28;25160;-76
2023/04/22 13:50:17;;;;;;;27.08;17.88;;;;;;;;;;4971007;28;25067;-76
2023/04/22 13:52:43;;;;;;;30.27;18.65;;;;;;;;;;4973078;28;25084;-76
2023/04/22 13:55:09;;;;;;;29.70;18.40;;;;;;;;;;4968586;28;25137;-76
2023/04/22 13:57:35;;;;;;;29.45;17.52;;;;;;;;;;4970186;28;25265;-78
2023/04/22 14:00:01;;;;;;;31.15;17.13;;;;;;;;;;4963210;28;25060;-75
2023/04/22 14:02:27;;;;;;;33.35;18.83;;;;;;;;;;4977038;28;25071;-77
2023/04/22 14:04:53;;;;;;;29.13;18.77;;;;;;;;;;4968855;28;25065;-73
2023/04/22 14:07:19;;;;;;;31.08;19.85;;;;;;;;;;4969813;28;25157;-77
2023/04/22 14:09:45;;;;;;;30.38;19.35;;;;;;;;;;4971632;28;25136;-76
2023/04/22 14:12:11;;;;;;;31.85;21.27;;;;;;;;;;4960922;28;25059;-75
2023/04/22 14:14:37;;;;;;;35.40;21.83;;;;;;;;;;4966640;28;25128;-75
2023/04/22 14:17:03;;;;;;;38.03;22.10;;;;;;;;;;4965931;28;25079;-74